Kezdőlap
METAR-TAF:

METAR-TAF

Repülőterek :

Béjaïa, Algéria

földrajzi szélesség: 36-43N, földrajzi hosszúság: 005-04E, magasság: 2 m

Jelenlegi meteorológiai megfigyelések

A jelentés 26 perccel ezelõtt készült, 22:00 UTC
Nyugati szél 4 kt
Hőmérséklet 27°C
Páratartalom 66%
Légköri nyomás 1010 hPa
Látótávolság: 8000 m

METAR: DAAE 172200Z 27004KT 8000 NSC 27/20 Q1010

Idő: 23:26 (22:26 UTC)

Előrejelzés

A jelentés 5 órával és 26 perccel ezelõtt készült, 17:00 UTC
Az előrejelzés 17-én 18 óra UTC és 18-én 18 óra UTC között érvényes
Kelet-délkeleti szél 8 kt
Látótávolság: 8000 m
Kevés felhő 4000 lábon
Valószínűség 40%
17-én 18 óra UTC és 17-én 24 óra UTC között
Kevés felhő 3000 lábon, Cumulonimbus.
Valószínűség 30% :
17-én 18 óra UTC és 17-én 22 óra UTC között ideiglenes
Látótávolság: 4000 m
zivatar, jégesõ, esõ,

TAF: DAAE 171700Z 1718/1818 11008KT 8000 FEW040 PROB40 1718/1724 FEW030CB PROB30 TEMPO 1718/1722 4000 TSGRRA

Meteorológiai megfigyelések és előrejelzések több, mint 4000 repülőtéren (METAR és TAF jelentéseket).

A térképen piros és sárga pontok jelzik az elérhető meteorológiai állomásokat.

Mozgassa az egeret a pont fölött, hogy megjelenjen az állomás neve.

Azután kattintson az időjárási megfigyelések és előrejelzések megtekintéséhez.

A térkép megváltoztatása: kattintson a fekete keresztel jelölt zöld gombra ráközelítéshez, a vonallal jelölt zöld gombra távolításhoz, vagy a zöld nyilakra a szomszédos térképek eléréséhez.


METAR-TAF: